createdAt,value
2019-05-21T00:00:22.134Z,101110.45
2019-05-21T00:02:54.626Z,101108.50
2019-05-21T00:05:27.869Z,101106.49
2019-05-21T00:08:00.144Z,101109.58
2019-05-21T00:10:32.369Z,101099.58
2019-05-21T00:13:04.804Z,101105.82
2019-05-21T00:15:38.641Z,101114.00
2019-05-21T00:18:10.961Z,101112.23
2019-05-21T00:20:43.285Z,101104.53
2019-05-21T00:23:15.603Z,101105.84
2019-05-21T00:25:47.823Z,101111.08
2019-05-21T00:28:20.150Z,101101.03
2019-05-21T00:30:52.385Z,101103.84
2019-05-21T00:33:25.666Z,101101.27
2019-05-21T00:35:57.959Z,101103.02
2019-05-21T00:38:30.414Z,101104.26
2019-05-21T00:41:03.055Z,101106.25
2019-05-21T00:43:35.231Z,101104.59
2019-05-21T00:46:07.493Z,101103.89
2019-05-21T00:48:39.763Z,101101.63
2019-05-21T00:51:11.983Z,101102.88
2019-05-21T00:53:44.220Z,101096.45
2019-05-21T00:56:16.427Z,101100.47
2019-05-21T00:58:48.651Z,101093.09
2019-05-21T01:01:20.917Z,101103.97
2019-05-21T01:03:53.126Z,101108.92
2019-05-21T01:06:25.382Z,101110.22
2019-05-21T01:08:57.608Z,101119.30
2019-05-21T01:11:29.899Z,101104.26
2019-05-21T01:14:02.193Z,101104.14
2019-05-21T01:16:34.382Z,101106.69
2019-05-21T01:19:06.643Z,101105.01
2019-05-21T01:21:38.946Z,101111.27
2019-05-21T01:24:11.214Z,101110.08
2019-05-21T01:26:43.487Z,101110.09
2019-05-21T01:29:15.772Z,101112.25
2019-05-21T01:31:47.981Z,101117.23
2019-05-21T01:34:20.228Z,101112.50
2019-05-21T01:36:52.671Z,101108.50
2019-05-21T01:39:25.095Z,101115.38
2019-05-21T01:41:57.602Z,101113.05
2019-05-21T01:44:29.877Z,101110.43
2019-05-21T01:47:04.147Z,101116.38
2019-05-21T01:49:36.376Z,101117.56
2019-05-21T01:52:09.422Z,101114.87
2019-05-21T01:54:41.663Z,101117.90
2019-05-21T01:57:13.972Z,101110.06
2019-05-21T01:59:46.433Z,101110.89
2019-05-21T02:02:18.643Z,101119.97
2019-05-21T02:04:50.970Z,101119.16
2019-05-21T02:07:25.373Z,101123.00
2019-05-21T02:09:57.634Z,101118.54
2019-05-21T02:12:29.837Z,101121.20
2019-05-21T02:15:02.202Z,101117.58
2019-05-21T02:17:35.516Z,101118.73
2019-05-21T02:20:07.971Z,101115.92
2019-05-21T02:22:40.258Z,101124.16
2019-05-21T02:25:12.526Z,101122.93
2019-05-21T02:27:44.771Z,101117.70
2019-05-21T02:30:17.006Z,101123.00
2019-05-21T02:32:49.265Z,101127.00
2019-05-21T02:35:21.544Z,101121.28
2019-05-21T02:37:53.776Z,101125.55
2019-05-21T02:40:26.050Z,101131.17
2019-05-21T02:42:58.323Z,101130.23
2019-05-21T02:45:30.571Z,101130.98
2019-05-21T02:48:02.809Z,101132.62
2019-05-21T02:50:35.059Z,101131.59
2019-05-21T02:53:07.355Z,101132.88
2019-05-21T02:55:39.600Z,101132.42
2019-05-21T02:58:11.845Z,101128.02
2019-05-21T03:00:44.128Z,101130.70
2019-05-21T03:03:17.564Z,101130.36
2019-05-21T03:05:49.799Z,101133.53
2019-05-21T03:08:21.983Z,101136.34
2019-05-21T03:10:56.305Z,101136.19
2019-05-21T03:13:28.490Z,101131.57
2019-05-21T03:16:00.823Z,101126.58
2019-05-21T03:18:33.107Z,101130.05
2019-05-21T03:21:05.376Z,101124.27
2019-05-21T03:23:37.678Z,101132.48
2019-05-21T03:26:09.862Z,101139.95
2019-05-21T03:28:42.105Z,101145.55
2019-05-21T03:31:14.499Z,101147.19
2019-05-21T03:33:47.013Z,101144.55
2019-05-21T03:36:32.710Z,101153.72
2019-05-21T03:38:53.180Z,101150.67
2019-05-21T03:41:25.418Z,101154.69
2019-05-21T03:43:57.671Z,101160.23
2019-05-21T03:46:31.998Z,101163.53
2019-05-21T03:49:04.223Z,101165.37
2019-05-21T03:51:36.469Z,101171.38
2019-05-21T03:54:08.755Z,101164.62
2019-05-21T03:56:42.951Z,101174.54
2019-05-21T03:59:15.435Z,101169.31
2019-05-21T04:01:47.649Z,101175.34
2019-05-21T04:04:19.878Z,101173.54
2019-05-21T04:06:53.379Z,101179.82
2019-05-21T04:09:25.665Z,101183.94
2019-05-21T04:12:00.186Z,101185.22
2019-05-21T04:14:32.488Z,101187.59
2019-05-21T04:17:04.767Z,101189.97
2019-05-21T04:19:37.062Z,101185.41
2019-05-21T04:22:09.294Z,101190.87
2019-05-21T04:24:41.575Z,101193.50
2019-05-21T04:27:13.799Z,101198.93
2019-05-21T04:29:46.153Z,101198.26
2019-05-21T04:32:18.388Z,101195.31
2019-05-21T04:34:50.601Z,101202.20
2019-05-21T04:37:22.806Z,101196.98
2019-05-21T04:39:55.105Z,101202.67
2019-05-21T04:42:27.304Z,101205.93
2019-05-21T04:44:59.589Z,101200.63
2019-05-21T04:47:31.876Z,101199.56
2019-05-21T04:50:04.142Z,101212.20
2019-05-21T04:52:36.371Z,101210.48
2019-05-21T04:55:08.608Z,101213.09
2019-05-21T04:57:41.028Z,101208.01
2019-05-21T05:00:13.497Z,101213.09
2019-05-21T05:02:45.816Z,101225.48
2019-05-21T05:05:18.088Z,101220.50
2019-05-21T05:07:50.576Z,101221.45
2019-05-21T05:10:22.898Z,101224.89
2019-05-21T05:12:55.165Z,101226.78
2019-05-21T05:15:27.411Z,101225.67
2019-05-21T05:17:59.664Z,101226.53
2019-05-21T05:20:32.006Z,101226.05
2019-05-21T05:23:04.247Z,101227.52
2019-05-21T05:25:36.491Z,101220.91
2019-05-21T05:28:08.769Z,101233.50
2019-05-21T05:30:40.985Z,101226.29
2019-05-21T05:33:13.174Z,101224.96
2019-05-21T05:35:45.491Z,101218.23
2019-05-21T05:38:17.725Z,101220.83
2019-05-21T05:40:49.954Z,101220.74
2019-05-21T05:43:24.351Z,101231.30
2019-05-21T05:45:58.661Z,101227.38
2019-05-21T05:48:30.943Z,101222.21
2019-05-21T05:51:03.421Z,101224.96
2019-05-21T05:53:35.689Z,101229.74
2019-05-21T05:56:07.951Z,101240.52
2019-05-21T05:58:40.207Z,101234.45
2019-05-21T06:01:12.433Z,101241.72
2019-05-21T06:03:44.694Z,101238.95
2019-05-21T06:06:17.116Z,101244.84
2019-05-21T06:08:49.665Z,101247.24
2019-05-21T06:11:21.919Z,101254.05
2019-05-21T06:13:54.171Z,101251.52
2019-05-21T06:16:26.431Z,101246.64
2019-05-21T06:18:58.668Z,101251.03
2019-05-21T06:21:30.897Z,101260.13
2019-05-21T06:24:03.292Z,101257.12
2019-05-21T06:26:35.609Z,101260.08
2019-05-21T06:29:07.843Z,101258.14
2019-05-21T06:31:40.050Z,101264.34
2019-05-21T06:34:12.557Z,101266.95
2019-05-21T06:36:44.792Z,101264.48
2019-05-21T06:39:17.081Z,101265.70
2019-05-21T06:41:49.328Z,101260.14
2019-05-21T06:44:21.559Z,101263.16
2019-05-21T06:46:54.095Z,101266.53
2019-05-21T06:49:26.316Z,101268.61
2019-05-21T06:51:58.559Z,101262.90
2019-05-21T06:54:30.826Z,101264.39
2019-05-21T06:57:03.051Z,101267.36
2019-05-21T06:59:35.267Z,101269.47
2019-05-21T07:02:07.562Z,101273.95
2019-05-21T07:04:39.805Z,101274.78
2019-05-21T07:07:12.008Z,101278.95
2019-05-21T07:09:44.217Z,101279.80
2019-05-21T07:12:16.488Z,101287.28
2019-05-21T07:14:48.708Z,101285.08
2019-05-21T07:17:20.922Z,101293.80
2019-05-21T07:19:53.203Z,101289.20
2019-05-21T07:22:25.432Z,101291.19
2019-05-21T07:24:57.665Z,101288.78
2019-05-21T07:27:29.880Z,101294.24
2019-05-21T07:30:02.421Z,101305.26
2019-05-21T07:32:35.386Z,101303.58
2019-05-21T07:35:07.620Z,101311.09
2019-05-21T07:37:40.255Z,101309.73
2019-05-21T07:40:12.664Z,101317.73
2019-05-21T07:42:44.923Z,101314.35
2019-05-21T07:45:17.226Z,101318.34
2019-05-21T07:47:51.557Z,101316.35
2019-05-21T07:50:23.807Z,101328.41
2019-05-21T07:52:56.042Z,101327.78
2019-05-21T07:55:28.297Z,101337.67
2019-05-21T07:58:00.559Z,101335.55
2019-05-21T08:00:32.767Z,101342.45
2019-05-21T08:03:04.980Z,101344.55
2019-05-21T08:05:37.477Z,101346.28
2019-05-21T08:08:09.729Z,101352.75
2019-05-21T08:10:42.034Z,101347.20
2019-05-21T08:13:14.253Z,101349.21
2019-05-21T08:15:46.308Z,101341.96
2019-05-21T08:18:18.561Z,101344.45
2019-05-21T08:20:50.811Z,101351.91
2019-05-21T08:23:23.067Z,101349.00
2019-05-21T08:25:55.306Z,101355.26
2019-05-21T08:28:27.582Z,101357.42
2019-05-21T08:31:02.246Z,101356.23
2019-05-21T08:33:33.739Z,101359.27
2019-05-21T08:36:06.261Z,101360.64
2019-05-21T08:38:38.458Z,101358.05
2019-05-21T08:41:10.680Z,101357.80
2019-05-21T08:43:42.901Z,101351.70
2019-05-21T08:46:15.169Z,101356.80
2019-05-21T08:48:47.402Z,101353.77
2019-05-21T08:51:19.670Z,101361.33
2019-05-21T08:53:51.867Z,101361.56
2019-05-21T08:56:24.064Z,101364.98
2019-05-21T08:58:56.333Z,101363.63
2019-05-21T09:01:28.557Z,101366.38
2019-05-21T09:04:00.832Z,101359.05
2019-05-21T09:06:33.151Z,101369.16
2019-05-21T09:09:05.429Z,101362.39
2019-05-21T09:11:37.709Z,101370.27
2019-05-21T09:14:10.078Z,101373.71
2019-05-21T09:16:42.301Z,101390.12
2019-05-21T09:19:14.502Z,101383.16
2019-05-21T09:21:46.763Z,101380.62
2019-05-21T09:24:19.013Z,101383.03
2019-05-21T09:26:51.168Z,101386.48
2019-05-21T09:29:23.449Z,101388.80
2019-05-21T09:31:55.723Z,101388.19
2019-05-21T09:34:27.980Z,101387.79
2019-05-21T09:37:00.373Z,101399.58
2019-05-21T09:39:32.633Z,101399.91
2019-05-21T09:42:04.874Z,101397.83
2019-05-21T09:44:37.165Z,101407.36
2019-05-21T09:47:09.434Z,101408.23
2019-05-21T09:49:41.711Z,101410.78
2019-05-21T09:52:13.956Z,101411.15
2019-05-21T09:54:46.165Z,101410.67
2019-05-21T09:57:18.387Z,101408.26
2019-05-21T09:59:50.868Z,101408.80
2019-05-21T10:02:23.059Z,101419.16
2019-05-21T10:04:55.324Z,101424.16
2019-05-21T10:07:38.885Z,101419.27
2019-05-21T10:10:01.501Z,101432.88
2019-05-21T10:12:33.890Z,101432.86
2019-05-21T10:15:06.133Z,101429.49
2019-05-21T10:17:38.365Z,101427.77
2019-05-21T10:20:10.809Z,101435.70
2019-05-21T10:22:43.105Z,101433.20
2019-05-21T10:25:15.995Z,101431.49
2019-05-21T10:27:48.353Z,101434.08
2019-05-21T10:30:20.583Z,101436.00
2019-05-21T10:32:52.917Z,101434.41
2019-05-21T10:35:25.233Z,101426.89
2019-05-21T10:37:59.780Z,101428.96
2019-05-21T10:40:34.215Z,101427.25
2019-05-21T10:43:06.540Z,101434.11
2019-05-21T10:45:38.819Z,101434.95
2019-05-21T10:48:11.076Z,101434.46
2019-05-21T10:50:43.325Z,101446.70
2019-05-21T10:53:15.541Z,101446.34
2019-05-21T10:55:47.790Z,101455.69
2019-05-21T10:58:20.003Z,101454.66
2019-05-21T11:00:52.261Z,101450.90
2019-05-21T11:03:24.511Z,101455.67
2019-05-21T11:06:09.789Z,101458.96
2019-05-21T11:08:30.690Z,101455.77
2019-05-21T11:11:02.890Z,101459.41
2019-05-21T11:13:35.214Z,101468.00
2019-05-21T11:16:07.509Z,101468.83
2019-05-21T11:18:39.757Z,101465.99
2019-05-21T11:21:12.969Z,101463.27
2019-05-21T11:23:45.269Z,101475.69
2019-05-21T11:26:17.458Z,101471.58
2019-05-21T11:28:49.697Z,101478.44
2019-05-21T11:31:22.087Z,101482.66
2019-05-21T11:33:54.357Z,101491.73
2019-05-21T11:36:26.587Z,101493.64
2019-05-21T11:38:58.837Z,101488.45
2019-05-21T11:41:31.055Z,101488.33
2019-05-21T11:44:03.318Z,101483.73
2019-05-21T11:46:35.552Z,101486.72
2019-05-21T11:49:07.760Z,101484.33
2019-05-21T11:51:40.066Z,101480.57
2019-05-21T11:54:13.706Z,101488.91
2019-05-21T11:56:46.173Z,101484.58
2019-05-21T11:59:18.389Z,101483.91
2019-05-21T12:01:50.598Z,101488.16
2019-05-21T12:04:22.837Z,101492.33
2019-05-21T12:06:55.060Z,101493.05
2019-05-21T12:09:27.315Z,101490.34
2019-05-21T12:11:59.600Z,101489.04
2019-05-21T12:14:33.874Z,101496.75
2019-05-21T12:17:08.356Z,101486.91
2019-05-21T12:19:40.591Z,101486.89
2019-05-21T12:22:12.844Z,101492.34
2019-05-21T12:24:45.080Z,101493.70
2019-05-21T12:27:17.366Z,101495.59
2019-05-21T12:29:49.620Z,101494.66
2019-05-21T12:32:21.949Z,101492.86
2019-05-21T12:34:54.239Z,101494.72
2019-05-21T12:37:26.502Z,101495.30
2019-05-21T12:39:58.715Z,101499.48
2019-05-21T12:42:30.945Z,101494.77
2019-05-21T12:45:03.233Z,101488.63
2019-05-21T12:47:35.472Z,101488.53
2019-05-21T12:50:09.990Z,101486.84
2019-05-21T12:52:42.192Z,101491.31
2019-05-21T12:55:14.464Z,101504.03
2019-05-21T12:57:46.685Z,101496.30
2019-05-21T13:00:18.956Z,101495.09
2019-05-21T13:02:51.226Z,101500.03
2019-05-21T13:05:23.439Z,101499.67
2019-05-21T13:07:55.673Z,101504.89
2019-05-21T13:10:27.978Z,101497.56
2019-05-21T13:13:00.266Z,101510.38
2019-05-21T13:15:32.540Z,101515.96
2019-05-21T13:18:04.832Z,101523.42
2019-05-21T13:20:37.100Z,101521.00
2019-05-21T13:23:11.775Z,101531.13
2019-05-21T13:25:44.016Z,101534.92
2019-05-21T13:28:16.256Z,101538.51
2019-05-21T13:30:49.811Z,101539.10
2019-05-21T13:33:22.707Z,101548.84
2019-05-21T13:35:54.942Z,101539.83
2019-05-21T13:38:27.280Z,101550.58
2019-05-21T13:40:59.639Z,101553.08
2019-05-21T13:43:31.933Z,101555.81
2019-05-21T13:46:04.247Z,101560.80
2019-05-21T13:48:36.545Z,101563.77
2019-05-21T13:51:08.803Z,101565.82
2019-05-21T13:53:41.209Z,101563.62
2019-05-21T13:56:14.014Z,101563.23
2019-05-21T13:58:46.513Z,101559.58
2019-05-21T14:01:18.783Z,101554.39
2019-05-21T14:03:51.175Z,101558.87
2019-05-21T14:06:23.397Z,101558.41
2019-05-21T14:08:55.687Z,101560.48
2019-05-21T14:11:27.910Z,101557.94
2019-05-21T14:14:00.247Z,101568.19
2019-05-21T14:16:34.731Z,101561.43
2019-05-21T14:19:06.433Z,101569.50
2019-05-21T14:21:38.638Z,101583.58
2019-05-21T14:24:10.918Z,101574.24
2019-05-21T14:26:43.158Z,101575.08
2019-05-21T14:29:15.502Z,101578.65
2019-05-21T14:31:47.783Z,101579.47
2019-05-21T14:34:20.104Z,101587.33
2019-05-21T14:36:52.330Z,101585.87
2019-05-21T14:39:24.648Z,101584.84
2019-05-21T14:41:56.854Z,101586.00
2019-05-21T14:44:29.540Z,101589.09
2019-05-21T14:47:01.786Z,101585.16
2019-05-21T14:49:34.116Z,101592.05
2019-05-21T14:52:08.511Z,101591.38
2019-05-21T14:54:40.821Z,101597.75
2019-05-21T14:57:13.046Z,101595.61
2019-05-21T14:59:45.441Z,101594.49
2019-05-21T15:02:17.800Z,101605.05
2019-05-21T15:04:50.318Z,101605.53
2019-05-21T15:07:22.564Z,101604.86
2019-05-21T15:09:54.866Z,101598.97
2019-05-21T15:12:27.180Z,101607.78
2019-05-21T15:14:59.442Z,101600.67
2019-05-21T15:17:31.652Z,101598.50
2019-05-21T15:20:03.966Z,101603.53
2019-05-21T15:22:36.365Z,101610.16
2019-05-21T15:25:08.631Z,101602.83
2019-05-21T15:27:40.892Z,101614.35
2019-05-21T15:30:13.524Z,101612.41
2019-05-21T15:32:45.704Z,101617.70
2019-05-21T15:35:17.958Z,101607.44
2019-05-21T15:37:50.183Z,101613.94
2019-05-21T15:40:22.409Z,101619.02
2019-05-21T15:42:54.827Z,101617.69
2019-05-21T15:45:27.070Z,101617.83
2019-05-21T15:47:59.368Z,101619.19
2019-05-21T15:50:31.670Z,101626.33
2019-05-21T15:53:03.870Z,101621.80
2019-05-21T15:55:36.181Z,101630.34
2019-05-21T15:58:08.443Z,101629.11
2019-05-21T16:00:40.691Z,101627.91
2019-05-21T16:03:12.911Z,101634.69
2019-05-21T16:05:45.178Z,101632.16
2019-05-21T16:08:17.491Z,101623.23
2019-05-21T16:10:49.754Z,101624.96
2019-05-21T16:13:21.984Z,101624.16
2019-05-21T16:15:54.355Z,101632.97
2019-05-21T16:18:26.643Z,101634.44
2019-05-21T16:20:58.939Z,101632.66
2019-05-21T16:23:31.404Z,101630.70
2019-05-21T16:26:04.071Z,101631.09
2019-05-21T16:28:36.313Z,101632.73
2019-05-21T16:31:08.574Z,101634.61
2019-05-21T16:33:40.906Z,101633.46
2019-05-21T16:36:13.147Z,101638.00
2019-05-21T16:38:45.474Z,101633.23
2019-05-21T16:41:17.711Z,101634.79
2019-05-21T16:43:49.963Z,101637.91
2019-05-21T16:46:22.200Z,101637.58
2019-05-21T16:48:54.525Z,101640.77
2019-05-21T16:51:26.759Z,101639.06
2019-05-21T16:53:58.976Z,101640.84
2019-05-21T16:56:31.254Z,101643.22
2019-05-21T16:59:09.496Z,101638.31
2019-05-21T17:01:46.560Z,101643.49
2019-05-21T17:04:18.852Z,101646.76
2019-05-21T17:06:51.086Z,101638.28
2019-05-21T17:09:23.352Z,101643.89
2019-05-21T17:12:00.118Z,101649.58
2019-05-21T17:14:29.626Z,101648.69
2019-05-21T17:17:01.847Z,101646.31
2019-05-21T17:19:34.058Z,101656.92
2019-05-21T17:22:06.336Z,101654.61
2019-05-21T17:24:38.565Z,101653.30
2019-05-21T17:27:10.794Z,101651.45
2019-05-21T17:29:43.344Z,101654.39
2019-05-21T17:32:15.574Z,101655.79
2019-05-21T17:34:47.832Z,101652.42
2019-05-21T17:37:20.134Z,101656.19
2019-05-21T17:39:52.484Z,101653.42
2019-05-21T17:42:25.782Z,101655.14
2019-05-21T17:44:58.042Z,101666.73
2019-05-21T17:47:30.271Z,101654.86
2019-05-21T17:50:02.615Z,101658.22
2019-05-21T17:52:34.922Z,101661.72
2019-05-21T17:55:07.237Z,101658.22
2019-05-21T17:57:39.700Z,101657.38
2019-05-21T18:00:11.960Z,101659.62
2019-05-21T18:02:44.762Z,101659.20
2019-05-21T18:05:17.221Z,101663.61
2019-05-21T18:07:49.826Z,101669.19
2019-05-21T18:10:22.058Z,101668.61
2019-05-21T18:13:00.594Z,101667.21
2019-05-21T18:15:33.377Z,101673.09
2019-05-21T18:18:05.652Z,101675.32
2019-05-21T18:20:37.881Z,101675.22
2019-05-21T18:23:10.176Z,101672.34
2019-05-21T18:25:43.072Z,101677.55
2019-05-21T18:28:15.308Z,101678.06
2019-05-21T18:30:47.593Z,101678.54
2019-05-21T18:33:20.024Z,101689.61
2019-05-21T18:35:52.251Z,101685.50
2019-05-21T18:38:24.505Z,101686.48
2019-05-21T18:40:56.845Z,101692.19
2019-05-21T18:43:29.134Z,101691.63
2019-05-21T18:46:01.431Z,101693.22
2019-05-21T18:48:33.697Z,101694.63
2019-05-21T18:51:05.937Z,101694.02
2019-05-21T18:53:38.215Z,101700.56
2019-05-21T18:56:10.494Z,101701.70
2019-05-21T18:58:42.929Z,101696.86
2019-05-21T19:01:15.335Z,101706.05
2019-05-21T19:03:47.566Z,101706.56
2019-05-21T19:06:20.140Z,101712.34
2019-05-21T19:08:52.429Z,101708.83
2019-05-21T19:11:26.349Z,101707.77
2019-05-21T19:13:59.287Z,101716.34
2019-05-21T19:16:31.685Z,101730.02
2019-05-21T19:19:03.915Z,101718.28
2019-05-21T19:21:36.187Z,101723.31
2019-05-21T19:24:08.525Z,101725.94
2019-05-21T19:26:43.924Z,101725.28
2019-05-21T19:29:14.930Z,101718.56
2019-05-21T19:31:49.273Z,101722.11
2019-05-21T19:34:21.248Z,101721.77
2019-05-21T19:36:53.596Z,101715.25
2019-05-21T19:39:25.886Z,101726.52
2019-05-21T19:41:58.149Z,101727.66
2019-05-21T19:44:32.713Z,101726.80
2019-05-21T19:47:06.460Z,101731.45
2019-05-21T19:49:38.786Z,101733.95
2019-05-21T19:52:11.932Z,101737.09
2019-05-21T19:54:44.330Z,101728.28
2019-05-21T19:57:16.578Z,101738.91
2019-05-21T19:59:49.142Z,101738.43
2019-05-21T20:02:22.745Z,101744.66
2019-05-21T20:04:55.130Z,101745.75
2019-05-21T20:07:27.343Z,101752.67
2019-05-21T20:09:59.568Z,101746.23
2019-05-21T20:12:31.829Z,101753.84
2019-05-21T20:15:04.131Z,101758.84
2019-05-21T20:17:37.751Z,101765.27
2019-05-21T20:20:11.052Z,101764.38
2019-05-21T20:22:43.250Z,101763.04
2019-05-21T20:25:15.537Z,101764.34
2019-05-21T20:27:47.873Z,101770.41
2019-05-21T20:30:20.099Z,101773.70
2019-05-21T20:32:52.975Z,101774.19
2019-05-21T20:35:25.229Z,101772.50
2019-05-21T20:37:57.704Z,101771.20
2019-05-21T20:40:29.982Z,101775.02
2019-05-21T20:43:02.288Z,101775.39
2019-05-21T20:45:34.518Z,101773.30
2019-05-21T20:48:06.837Z,101770.16
2019-05-21T20:50:39.157Z,101773.19
2019-05-21T20:53:11.456Z,101768.27
2019-05-21T20:55:43.785Z,101768.64
2019-05-21T20:58:15.990Z,101769.58
2019-05-21T21:00:48.248Z,101768.23
2019-05-21T21:03:20.815Z,101769.95
2019-05-21T21:05:53.019Z,101768.48
2019-05-21T21:08:27.710Z,101769.20
2019-05-21T21:10:59.326Z,101775.13
2019-05-21T21:13:31.551Z,101778.36
2019-05-21T21:16:04.183Z,101775.30
2019-05-21T21:18:36.455Z,101771.12
2019-05-21T21:21:08.674Z,101770.41
2019-05-21T21:23:40.964Z,101771.92
2019-05-21T21:26:13.249Z,101772.57
2019-05-21T21:28:45.424Z,101779.42
2019-05-21T21:31:17.756Z,101779.35
2019-05-21T21:33:50.004Z,101777.42
2019-05-21T21:36:22.266Z,101780.35
2019-05-21T21:38:54.569Z,101786.59
2019-05-21T21:41:26.810Z,101785.00
2019-05-21T21:43:59.020Z,101785.97
2019-05-21T21:46:31.267Z,101791.12
2019-05-21T21:49:03.503Z,101795.74
2019-05-21T21:51:35.736Z,101792.05
2019-05-21T21:54:08.001Z,101794.64
2019-05-21T21:56:40.251Z,101795.67
2019-05-21T21:59:12.483Z,101802.87
2019-05-21T22:01:44.781Z,101801.97
2019-05-21T22:04:17.213Z,101799.36
2019-05-21T22:06:49.501Z,101797.05
2019-05-21T22:09:21.834Z,101791.41
2019-05-21T22:11:54.174Z,101797.42
2019-05-21T22:14:26.302Z,101797.05
2019-05-21T22:16:58.549Z,101796.73
2019-05-21T22:19:30.861Z,101795.53
2019-05-21T22:22:03.141Z,101795.43
2019-05-21T22:24:35.413Z,101794.33
2019-05-21T22:27:07.647Z,101796.05
2019-05-21T22:29:40.098Z,101795.36
2019-05-21T22:32:12.468Z,101789.99
2019-05-21T22:34:44.748Z,101799.56
2019-05-21T22:37:16.841Z,101802.66
2019-05-21T22:39:49.087Z,101803.97
2019-05-21T22:42:21.286Z,101802.59
2019-05-21T22:45:06.822Z,101805.13
2019-05-21T22:47:28.222Z,101798.15
2019-05-21T22:50:00.624Z,101797.18
2019-05-21T22:52:32.842Z,101796.05
2019-05-21T22:55:05.100Z,101799.18
2019-05-21T22:57:37.370Z,101800.59
2019-05-21T23:00:09.592Z,101802.97
2019-05-21T23:02:41.816Z,101806.62
2019-05-21T23:05:14.122Z,101803.14
2019-05-21T23:07:47.966Z,101806.59
2019-05-21T23:10:20.204Z,101810.44
2019-05-21T23:12:52.414Z,101808.69
2019-05-21T23:15:25.731Z,101800.53
2019-05-21T23:18:17.761Z,101800.35
2019-05-21T23:20:54.541Z,101798.84
2019-05-21T23:23:28.542Z,101799.70
2019-05-21T23:26:01.864Z,101806.58
2019-05-21T23:28:34.086Z,101808.23
2019-05-21T23:31:08.355Z,101805.79
2019-05-21T23:33:40.585Z,101802.11
2019-05-21T23:36:12.840Z,101795.87
2019-05-21T23:38:45.071Z,101804.44
2019-05-21T23:41:17.347Z,101805.43
2019-05-21T23:43:49.625Z,101800.27
2019-05-21T23:46:21.847Z,101802.33
2019-05-21T23:48:54.093Z,101803.01
2019-05-21T23:51:26.605Z,101813.40
2019-05-21T23:53:58.936Z,101810.19
2019-05-21T23:56:31.161Z,101816.62
2019-05-21T23:59:03.450Z,101813.11
